Time;durP1;ratioP1;P1;durP2;ratioP2;P2;SDS_P1;SDS_P2;PMS_P1;PMS_P2;Temp;Humidity;BMP_temperature;BMP_pressure;BME280_temperature;BME280_humidity;BME280_pressure;Samples;Min_cycle;Max_cycle;Signal;HPM_P1;HPM_P2
2021/06/18 00:01:46;;;;;;;14.98;13.57;;;;;;;24.61;58.55;98562.72;3559849;40;20038;-63
2021/06/18 00:04:14;;;;;;;14.60;13.20;;;;;;;24.65;58.44;98563.75;3559843;40;20054;-62
2021/06/18 00:06:41;;;;;;;16.67;14.02;;;;;;;24.55;58.70;98566.59;3559158;40;20441;-63
2021/06/18 00:09:09;;;;;;;18.75;13.48;;;;;;;24.51;58.60;98574.47;3559458;40;20123;-63
2021/06/18 00:11:37;;;;;;;16.10;14.60;;;;;;;24.36;59.19;98566.50;3559390;40;20299;-62
2021/06/18 00:14:05;;;;;;;16.02;14.35;;;;;;;24.12;59.94;98564.59;3566930;40;20054;-62
2021/06/18 00:16:33;;;;;;;15.95;14.50;;;;;;;24.06;60.18;98564.97;3559069;40;20123;-62
2021/06/18 00:19:03;;;;;;;16.02;14.57;;;;;;;23.97;60.36;98556.69;3560293;40;20058;-64
2021/06/18 00:21:31;;;;;;;16.33;14.85;;;;;;;23.92;60.66;98548.63;3559450;40;20312;-62
2021/06/18 00:23:58;;;;;;;16.67;15.18;;;;;;;23.90;60.30;98554.31;3559258;40;20056;-64
2021/06/18 00:26:27;;;;;;;17.63;15.88;;;;;;;23.78;60.78;98543.09;3559124;40;20049;-62
2021/06/18 00:28:55;;;;;;;18.60;16.80;;;;;;;23.83;60.77;98542.25;3559272;40;20330;-64
2021/06/18 00:31:22;;;;;;;17.52;15.82;;;;;;;23.88;60.05;98536.78;3559263;40;20135;-63
2021/06/18 00:33:50;;;;;;;17.42;15.80;;;;;;;23.90;59.90;98540.03;3559072;40;20054;-63
2021/06/18 00:36:19;;;;;;;15.60;14.25;;;;;;;23.91;59.56;98541.63;3559007;40;20058;-64
2021/06/18 00:38:47;;;;;;;15.35;13.85;;;;;;;23.87;59.14;98546.78;3559358;40;20046;-63
2021/06/18 00:41:14;;;;;;;15.75;14.27;;;;;;;23.86;59.40;98552.47;3559039;40;20057;-64
2021/06/18 00:43:43;;;;;;;14.65;13.35;;;;;;;23.82;59.30;98557.66;3559257;40;20053;-63
2021/06/18 00:46:13;;;;;;;17.08;15.27;;;;;;;23.86;59.52;98557.88;3558851;40;20135;-63
2021/06/18 00:48:41;;;;;;;15.98;14.60;;;;;;;23.85;59.36;98558.97;3559004;40;20053;-63
2021/06/18 00:51:08;;;;;;;15.52;14.23;;;;;;;23.86;59.26;98561.38;3566047;40;20042;-63
2021/06/18 00:53:40;;;;;;;16.85;15.35;;;;;;;23.92;58.87;98557.56;3558957;40;20058;-63
2021/06/18 00:56:08;;;;;;;14.75;13.45;;;;;;;23.87;58.83;98559.47;3558972;40;20053;-64
2021/06/18 00:58:36;;;;;;;16.80;14.77;;;;;;;23.81;58.71;98561.44;3559189;40;20483;-63
2021/06/18 01:01:04;;;;;;;15.07;13.77;;;;;;;23.71;58.94;98562.31;3558010;40;20070;-63
2021/06/18 01:03:32;;;;;;;16.13;14.73;;;;;;;23.65;58.96;98557.25;3559246;40;20061;-63
2021/06/18 01:06:00;;;;;;;16.75;15.32;;;;;;;23.60;59.07;98557.31;3558800;40;20050;-63
2021/06/18 01:08:38;;;;;;;14.82;13.52;;;;;;;23.55;59.20;98562.72;3559253;40;20488;-64
2021/06/18 01:11:13;;;;;;;15.18;13.65;;;;;;;23.46;59.56;98563.31;3558945;40;20057;-63
2021/06/18 01:13:53;;;;;;;15.73;14.32;;;;;;;23.48;59.63;98569.25;3559036;40;20143;-63
2021/06/18 01:16:31;;;;;;;14.85;13.50;;;;;;;23.47;59.83;98570.34;3566209;40;20054;-64
2021/06/18 01:19:01;;;;;;;15.45;14.05;;;;;;;23.53;59.85;98562.22;3559179;40;20046;-63
2021/06/18 01:21:32;;;;;;;17.10;15.40;;;;;;;23.58;59.88;98567.56;3558095;40;20052;-63
2021/06/18 01:24:08;;;;;;;15.45;13.85;;;;;;;23.49;60.34;98573.56;3558122;40;20140;-64
2021/06/18 01:26:48;;;;;;;16.50;15.00;;;;;;;23.52;60.37;98571.41;3557908;40;20426;-63
2021/06/18 01:29:20;;;;;;;19.33;14.48;;;;;;;23.61;60.13;98567.78;3559072;40;20081;-63
2021/06/18 01:31:51;;;;;;;17.08;15.00;;;;;;;23.57;60.56;98574.03;3559162;40;20053;-62
2021/06/18 01:34:23;;;;;;;17.17;15.40;;;;;;;23.54;60.73;98580.00;3559289;40;20112;-64
2021/06/18 01:36:56;;;;;;;17.15;15.40;;;;;;;23.52;60.78;98593.78;3558892;40;20423;-64
2021/06/18 01:39:25;;;;;;;16.97;15.30;;;;;;;23.43;61.07;98600.84;3558275;40;20057;-63
2021/06/18 01:41:54;;;;;;;16.90;15.27;;;;;;;23.23;61.52;98594.53;3559984;40;20288;-63
2021/06/18 01:44:24;;;;;;;16.77;15.23;;;;;;;23.19;62.10;98592.69;3561781;40;20340;-63
2021/06/18 01:46:54;;;;;;;17.15;15.55;;;;;;;23.15;62.16;98586.22;3562760;40;20061;-64
2021/06/18 01:49:23;;;;;;;17.38;15.68;;;;;;;23.12;62.42;98598.38;3562646;40;20053;-63
2021/06/18 01:51:52;;;;;;;17.00;15.25;;;;;;;23.13;62.29;98588.38;3563134;40;20058;-63
2021/06/18 01:54:26;;;;;;;15.95;14.32;;;;;;;23.10;62.66;98602.41;3563055;40;20041;-62
2021/06/18 01:56:56;;;;;;;18.48;15.65;;;;;;;23.09;62.74;98595.44;3562866;40;20409;-64
2021/06/18 01:59:27;;;;;;;17.70;15.88;;;;;;;23.11;62.72;98587.88;3562693;40;20062;-63
2021/06/18 02:01:55;;;;;;;20.23;18.23;;;;;;;22.96;63.14;98592.25;3614813;23;20381;-59
2021/06/18 02:04:23;;;;;;;17.08;15.40;;;;;;;22.86;63.72;98589.63;3557835;40;20314;-58
2021/06/18 02:06:53;;;;;;;19.50;16.92;;;;;;;22.88;64.06;98573.94;3558803;40;20373;-57
2021/06/18 02:09:22;;;;;;;19.83;17.83;;;;;;;22.91;64.20;98583.41;3558635;40;20049;-58
2021/06/18 02:11:50;;;;;;;18.35;16.63;;;;;;;22.90;64.37;98587.13;3558490;40;20049;-58
2021/06/18 02:14:20;;;;;;;18.95;17.10;;;;;;;22.87;64.57;98585.03;3558565;40;20053;-58
2021/06/18 02:16:53;;;;;;;21.48;17.75;;;;;;;22.89;64.51;98585.53;3558097;40;20116;-57
2021/06/18 02:19:23;;;;;;;19.85;17.95;;;;;;;22.90;64.51;98584.44;3558321;40;20132;-57
2021/06/18 02:21:54;;;;;;;19.35;16.85;;;;;;;22.94;64.48;98580.13;3558900;40;20139;-59
2021/06/18 02:24:26;;;;;;;17.92;16.33;;;;;;;22.95;64.56;98587.97;3558319;40;20131;-59
2021/06/18 02:26:54;;;;;;;18.85;16.95;;;;;;;22.92;64.48;98585.81;3558190;40;20100;-57
2021/06/18 02:29:22;;;;;;;19.63;16.50;;;;;;;22.93;64.52;98592.00;3558474;40;20057;-58
2021/06/18 02:31:55;;;;;;;18.35;16.45;;;;;;;22.95;64.47;98597.94;3558259;40;20061;-58
2021/06/18 02:34:22;;;;;;;20.30;17.05;;;;;;;22.93;64.37;98600.91;3558618;40;20056;-58
2021/06/18 02:36:50;;;;;;;19.45;17.55;;;;;;;22.80;64.78;98606.88;3558149;40;20050;-58
2021/06/18 02:39:18;;;;;;;19.15;17.35;;;;;;;22.75;65.00;98605.00;3558291;40;20355;-58
2021/06/18 02:41:46;;;;;;;18.65;16.73;;;;;;;22.76;65.23;98603.13;3558234;40;20143;-58
2021/06/18 02:44:14;;;;;;;19.67;17.67;;;;;;;22.73;65.11;98609.84;3558246;40;20127;-58
2021/06/18 02:46:47;;;;;;;18.60;16.70;;;;;;;22.68;65.44;98614.47;3558007;40;20045;-58
2021/06/18 02:49:22;;;;;;;20.08;18.05;;;;;;;22.77;65.13;98612.00;3558281;40;20058;-57
2021/06/18 02:51:53;;;;;;;18.25;16.30;;;;;;;22.81;65.10;98613.06;3558174;40;20131;-59
2021/06/18 02:54:35;;;;;;;19.40;17.20;;;;;;;22.85;65.00;98616.81;3558379;40;20120;-58
2021/06/18 02:57:08;;;;;;;19.42;17.05;;;;;;;22.83;64.61;98613.59;3557901;40;20126;-58
2021/06/18 02:59:42;;;;;;;19.27;17.33;;;;;;;22.88;64.57;98617.06;3558270;40;20149;-58
2021/06/18 03:02:15;;;;;;;19.52;17.70;;;;;;;22.93;64.65;98618.97;3558125;40;20087;-58
2021/06/18 03:04:46;;;;;;;19.38;17.50;;;;;;;22.94;64.55;98616.00;3557862;40;20046;-58
2021/06/18 03:07:18;;;;;;;18.92;16.98;;;;;;;22.93;64.54;98611.69;3557932;40;20058;-58
2021/06/18 03:09:49;;;;;;;18.83;16.92;;;;;;;22.92;64.66;98615.47;3558022;40;20076;-58
2021/06/18 03:12:21;;;;;;;18.65;16.77;;;;;;;22.95;64.67;98612.22;3557944;40;20119;-58
2021/06/18 03:14:50;;;;;;;18.50;16.60;;;;;;;22.96;64.37;98619.22;3558229;40;20106;-58
2021/06/18 03:17:21;;;;;;;21.42;18.02;;;;;;;22.97;64.26;98614.63;3559310;40;20057;-58
2021/06/18 03:19:54;;;;;;;19.92;17.40;;;;;;;22.94;64.25;98609.78;3559974;40;20056;-59
2021/06/18 03:22:23;;;;;;;20.13;18.05;;;;;;;22.59;64.90;98619.63;3561361;40;20135;-58
2021/06/18 03:24:52;;;;;;;20.88;16.27;;;;;;;22.49;65.55;98625.03;3561613;40;20108;-57
2021/06/18 03:27:21;;;;;;;20.67;16.20;;;;;;;22.50;65.86;98619.41;3562474;40;20110;-58
2021/06/18 03:29:52;;;;;;;17.00;15.35;;;;;;;22.62;65.40;98623.69;3561380;40;20052;-58
2021/06/18 03:32:21;;;;;;;18.35;16.63;;;;;;;22.79;64.74;98626.03;3560599;40;20139;-58
2021/06/18 03:34:51;;;;;;;17.98;15.75;;;;;;;22.92;64.20;98628.94;3561048;40;20104;-59
2021/06/18 03:37:20;;;;;;;17.85;16.05;;;;;;;23.03;63.75;98623.50;3560375;40;20054;-58
2021/06/18 03:39:49;;;;;;;17.85;16.05;;;;;;;23.04;63.68;98625.91;3561126;40;20132;-58
2021/06/18 03:42:17;;;;;;;36.08;32.30;;;;;;;22.99;63.82;98623.25;3559897;40;20052;-58
2021/06/18 03:44:45;;;;;;;22.77;20.20;;;;;;;22.91;64.04;98632.72;3558491;40;20046;-58
2021/06/18 03:47:14;;;;;;;20.95;18.90;;;;;;;22.87;64.14;98625.44;3559574;40;20057;-58
2021/06/18 03:49:44;;;;;;;18.08;16.33;;;;;;;22.46;65.15;98631.00;3560174;40;20062;-59
2021/06/18 03:52:13;;;;;;;17.70;15.90;;;;;;;22.42;65.48;98646.91;3560159;40;20041;-58
2021/06/18 03:54:42;;;;;;;20.13;18.10;;;;;;;22.54;65.43;98635.81;3560474;40;20112;-58
2021/06/18 03:57:10;;;;;;;17.90;15.98;;;;;;;22.59;65.04;98635.00;3560284;40;20127;-58
2021/06/18 03:59:42;;;;;;;17.35;15.65;;;;;;;22.71;64.75;98638.19;3559912;40;20048;-59
2021/06/18 04:02:12;;;;;;;19.05;16.83;;;;;;;22.90;64.19;98632.97;3559691;40;20092;-58
2021/06/18 04:04:42;;;;;;;16.90;15.20;;;;;;;22.99;63.69;98625.97;3559625;40;20054;-58
2021/06/18 04:07:12;;;;;;;16.52;15.07;;;;;;;22.80;64.06;98635.72;3559397;40;20046;-58
2021/06/18 04:09:41;;;;;;;18.02;16.25;;;;;;;22.62;64.68;98637.94;3559237;40;20054;-59
2021/06/18 04:12:11;;;;;;;19.20;17.25;;;;;;;22.63;64.60;98636.06;3559145;40;20088;-58
2021/06/18 04:14:40;;;;;;;18.65;16.95;;;;;;;22.61;64.71;98638.19;3558237;40;20155;-58
2021/06/18 04:17:09;;;;;;;17.35;15.75;;;;;;;22.63;64.41;98639.56;3558944;40;20070;-59
2021/06/18 04:19:38;;;;;;;17.80;16.25;;;;;;;22.75;64.13;98636.53;3559050;40;20045;-56
2021/06/18 04:22:07;;;;;;;18.50;16.80;;;;;;;22.77;64.31;98637.06;3559125;40;20390;-58
2021/06/18 04:24:35;;;;;;;19.17;15.90;;;;;;;22.79;64.01;98629.53;3559339;40;20053;-58
2021/06/18 04:27:04;;;;;;;16.00;14.52;;;;;;;22.84;64.03;98634.88;3558502;40;20085;-58
2021/06/18 04:29:32;;;;;;;17.75;15.95;;;;;;;22.93;63.61;98638.63;3559156;40;20064;-58
2021/06/18 04:32:00;;;;;;;19.67;16.08;;;;;;;23.03;63.64;98643.19;3558975;40;20052;-58
2021/06/18 04:34:28;;;;;;;16.70;15.20;;;;;;;23.18;63.14;98639.59;3559252;40;20056;-58
2021/06/18 04:36:55;;;;;;;17.80;16.10;;;;;;;23.34;62.58;98629.50;3558956;40;20053;-58
2021/06/18 04:39:23;;;;;;;17.27;15.65;;;;;;;23.41;62.09;98628.09;3559257;40;20049;-59
2021/06/18 04:41:51;;;;;;;20.45;18.38;;;;;;;23.50;61.39;98633.72;3559081;40;20049;-58
2021/06/18 04:44:21;;;;;;;17.48;15.88;;;;;;;23.40;61.62;98640.00;3559597;40;20046;-59
2021/06/18 04:46:49;;;;;;;18.25;16.55;;;;;;;23.36;61.91;98638.13;3561276;40;20082;-59
2021/06/18 04:49:17;;;;;;;19.30;16.50;;;;;;;23.36;62.14;98632.75;3561688;40;20415;-58
2021/06/18 04:51:45;;;;;;;18.10;16.25;;;;;;;23.36;61.92;98632.75;3559946;40;20379;-59
2021/06/18 04:54:13;;;;;;;18.90;16.90;;;;;;;23.45;61.75;98639.16;3559190;40;20048;-60
2021/06/18 04:56:41;;;;;;;21.63;17.42;;;;;;;23.57;61.34;98633.41;3559090;40;20046;-59
2021/06/18 04:59:09;;;;;;;20.33;18.30;;;;;;;23.57;60.84;98630.69;3558944;40;20050;-59
2021/06/18 05:01:38;;;;;;;18.98;17.13;;;;;;;23.57;61.07;98628.81;3559447;40;20046;-59
2021/06/18 05:04:06;;;;;;;20.55;18.35;;;;;;;23.62;61.06;98623.38;3559208;40;20053;-58
2021/06/18 05:06:33;;;;;;;21.42;19.17;;;;;;;23.76;60.45;98620.03;3558837;40;20089;-58
2021/06/18 05:09:01;;;;;;;18.75;16.80;;;;;;;23.87;60.19;98616.97;3559099;40;20057;-57
2021/06/18 05:11:29;;;;;;;20.30;18.27;;;;;;;23.95;59.71;98610.16;3560841;40;20050;-58
2021/06/18 05:13:57;;;;;;;20.25;18.33;;;;;;;23.94;59.35;98614.75;3563452;40;20053;-58
2021/06/18 05:16:26;;;;;;;21.33;18.85;;;;;;;23.95;59.72;98599.34;3563499;40;20331;-59
2021/06/18 05:18:55;;;;;;;21.98;19.77;;;;;;;23.99;59.52;98605.78;3562990;40;20050;-59
2021/06/18 05:21:23;;;;;;;20.40;17.58;;;;;;;24.13;59.46;98604.03;3561580;40;20053;-57
2021/06/18 05:23:51;;;;;;;22.85;18.95;;;;;;;24.25;59.16;98600.13;3558778;40;20061;-58
2021/06/18 05:26:18;;;;;;;18.33;15.85;;;;;;;24.32;58.86;98597.91;3559480;40;20050;-58
2021/06/18 05:28:46;;;;;;;18.80;16.23;;;;;;;24.44;58.19;98582.91;3558327;40;20086;-58
2021/06/18 05:31:14;;;;;;;16.38;14.88;;;;;;;24.43;57.67;98580.50;3558920;40;20053;-57
2021/06/18 05:33:42;;;;;;;13.93;12.63;;;;;;;24.37;57.18;98576.22;3558972;40;20056;-58
2021/06/18 05:36:11;;;;;;;14.38;12.95;;;;;;;24.40;57.08;98573.78;3558742;40;20057;-58
2021/06/18 05:38:39;;;;;;;12.05;10.88;;;;;;;24.41;57.01;98571.88;3558741;40;20046;-56
2021/06/18 05:41:07;;;;;;;13.07;11.98;;;;;;;24.49;56.40;98578.53;3558972;40;20049;-58
2021/06/18 05:43:35;;;;;;;14.75;11.23;;;;;;;24.50;56.17;98580.19;3558776;40;20054;-58
2021/06/18 05:46:03;;;;;;;12.73;10.63;;;;;;;24.60;55.85;98572.72;3558866;40;20086;-58
2021/06/18 05:48:31;;;;;;;11.13;10.02;;;;;;;24.63;55.50;98574.06;3558698;40;20480;-59
2021/06/18 05:50:59;;;;;;;11.68;9.75;;;;;;;24.68;55.75;98566.66;3558619;40;20041;-58
2021/06/18 05:53:28;;;;;;;10.32;9.32;;;;;;;24.85;55.30;98562.66;3558618;40;20085;-57
2021/06/18 05:55:57;;;;;;;12.80;10.45;;;;;;;24.98;54.95;98559.22;3558505;40;20054;-58
2021/06/18 05:58:25;;;;;;;11.35;10.15;;;;;;;25.10;54.35;98561.53;3557922;40;20042;-58
2021/06/18 06:00:53;;;;;;;12.98;9.77;;;;;;;25.08;53.97;98561.81;3559025;40;20375;-58
2021/06/18 06:03:22;;;;;;;10.70;9.75;;;;;;;25.03;54.36;98564.59;3566167;40;20049;-57
2021/06/18 06:05:50;;;;;;;10.68;8.52;;;;;;;25.12;54.49;98568.25;3558524;40;20053;-58
2021/06/18 06:08:18;;;;;;;10.35;9.40;;;;;;;25.34;53.99;98578.47;3558749;40;20480;-57
2021/06/18 06:10:49;;;;;;;8.88;8.07;;;;;;;25.43;53.80;98573.19;3565860;40;20434;-58
2021/06/18 06:13:18;;;;;;;9.05;8.13;;;;;;;25.57;53.49;98578.66;3558508;40;20048;-58
2021/06/18 06:15:47;;;;;;;9.63;8.68;;;;;;;25.67;53.24;98578.47;3558666;40;20131;-58
2021/06/18 06:18:15;;;;;;;9.73;8.75;;;;;;;25.68;53.12;98575.47;3559437;40;20089;-59
2021/06/18 06:20:44;;;;;;;9.20;8.30;;;;;;;25.74;52.81;98562.66;3558513;40;20342;-57
2021/06/18 06:23:12;;;;;;;11.88;8.70;;;;;;;25.85;52.14;98572.25;3558635;40;20092;-57
2021/06/18 06:25:41;;;;;;;8.70;7.90;;;;;;;25.92;52.18;98571.81;3558314;40;20061;-58
2021/06/18 06:28:10;;;;;;;8.75;7.95;;;;;;;26.05;51.96;98575.69;3558210;40;20072;-58
2021/06/18 06:30:38;;;;;;;8.68;7.85;;;;;;;26.09;51.72;98577.50;3558468;40;20078;-57
2021/06/18 06:33:06;;;;;;;11.32;8.43;;;;;;;26.17;51.69;98565.16;3558847;40;20029;-57
2021/06/18 06:35:34;;;;;;;9.60;7.60;;;;;;;26.29;50.98;98576.28;3557566;40;20384;-57
2021/06/18 06:38:03;;;;;;;11.20;8.13;;;;;;;26.38;50.17;98569.06;3558443;40;20049;-57
2021/06/18 06:40:30;;;;;;;10.48;7.68;;;;;;;26.48;49.72;98575.41;3558409;40;20072;-57
2021/06/18 06:42:58;;;;;;;10.77;8.00;;;;;;;26.52;49.46;98569.06;3558414;40;20340;-58
2021/06/18 06:45:27;;;;;;;16.38;11.55;;;;;;;26.49;49.18;98566.16;3558398;40;20089;-57
2021/06/18 06:47:55;;;;;;;11.60;8.65;;;;;;;26.54;49.75;98568.78;3558202;40;20468;-57
2021/06/18 06:50:23;;;;;;;9.93;8.23;;;;;;;26.72;49.58;98569.75;3558030;40;20049;-57
2021/06/18 06:52:50;;;;;;;8.40;7.25;;;;;;;26.86;49.32;98565.91;3559668;40;20061;-58
2021/06/18 06:55:18;;;;;;;8.95;7.60;;;;;;;27.02;48.69;98568.25;3559671;40;20430;-58
2021/06/18 06:57:46;;;;;;;10.63;8.93;;;;;;;27.12;48.38;98570.78;3559304;40;20046;-59
2021/06/18 07:00:14;;;;;;;13.23;11.98;;;;;;;27.20;48.31;98580.09;3559644;40;20046;-57
2021/06/18 07:02:44;;;;;;;10.93;6.93;;;;;;;27.28;48.04;98588.31;3558872;40;20081;-57
2021/06/18 07:05:13;;;;;;;7.00;6.05;;;;;;;27.37;47.52;98582.94;3559802;40;20049;-57
2021/06/18 07:07:41;;;;;;;13.40;6.43;;;;;;;27.53;46.22;98588.81;3559625;40;20415;-57
2021/06/18 07:10:10;;;;;;;8.65;5.93;;;;;;;27.53;46.10;98583.38;3559594;40;20046;-57
2021/06/18 07:12:39;;;;;;;8.82;7.15;;;;;;;27.68;46.87;98583.00;3559701;40;20053;-58
2021/06/18 07:15:08;;;;;;;10.85;7.15;;;;;;;27.83;45.69;98582.63;3559711;40;20053;-57
2021/06/18 07:17:36;;;;;;;9.82;8.38;;;;;;;27.89;46.08;98581.41;3559390;40;20033;-57
2021/06/18 07:20:06;;;;;;;12.45;8.50;;;;;;;28.04;45.62;98580.16;3559476;40;20368;-57
2021/06/18 07:22:34;;;;;;;12.48;7.28;;;;;;;28.32;45.71;98591.63;3559638;40;20050;-57
2021/06/18 07:25:02;;;;;;;10.52;6.00;;;;;;;28.47;44.01;98586.94;3558472;40;20049;-57
2021/06/18 07:27:32;;;;;;;7.80;6.32;;;;;;;28.55;44.57;98594.31;3559544;40;20063;-57
2021/06/18 07:30:00;;;;;;;7.78;6.30;;;;;;;28.63;44.61;98599.78;3559344;40;20323;-57
2021/06/18 07:32:28;;;;;;;7.82;5.97;;;;;;;28.70;44.01;98595.78;3559503;40;20070;-57
2021/06/18 07:34:56;;;;;;;9.13;5.80;;;;;;;28.83;44.06;98597.56;3559572;40;20086;-57
2021/06/18 07:37:25;;;;;;;7.90;6.10;;;;;;;29.07;43.71;98602.59;3559343;40;20053;-57
2021/06/18 07:39:52;;;;;;;9.38;7.65;;;;;;;29.33;42.52;98597.16;3559736;40;20438;-57
2021/06/18 07:42:29;;;;;;;8.70;5.60;;;;;;;29.31;42.59;98600.19;3559594;40;20097;-57
2021/06/18 07:44:57;;;;;;;8.85;6.50;;;;;;;29.30;43.02;98597.78;3559428;40;20407;-57
2021/06/18 07:47:25;;;;;;;6.80;6.05;;;;;;;29.24;42.35;98609.97;3559974;40;20086;-57
2021/06/18 07:49:53;;;;;;;9.23;6.32;;;;;;;29.23;42.19;98613.78;3559825;40;20052;-57
2021/06/18 07:52:21;;;;;;;8.57;6.22;;;;;;;29.24;42.29;98604.53;3559855;40;20049;-58
2021/06/18 07:54:52;;;;;;;7.00;5.22;;;;;;;29.15;42.45;98607.25;3559945;40;20066;-58
2021/06/18 07:57:20;;;;;;;9.77;6.85;;;;;;;29.17;43.06;98596.81;3564634;40;20184;-58
2021/06/18 07:59:48;;;;;;;6.43;5.38;;;;;;;29.23;42.93;98600.19;3564430;40;20062;-58
2021/06/18 08:02:15;;;;;;;10.95;6.30;;;;;;;29.32;42.63;98603.72;3594066;23;20042;-65
2021/06/18 08:04:51;;;;;;;12.88;6.38;;;;;;;29.27;43.17;98609.31;3559351;40;20046;-66
2021/06/18 08:07:19;;;;;;;13.70;6.68;;;;;;;29.19;42.71;98612.81;3559249;40;20060;-65
2021/06/18 08:09:47;;;;;;;6.20;5.60;;;;;;;29.29;43.08;98607.06;3559308;40;20059;-65
2021/06/18 08:12:16;;;;;;;10.63;6.03;;;;;;;29.35;42.43;98613.94;3559585;40;20391;-64
2021/06/18 08:14:44;;;;;;;7.78;5.82;;;;;;;29.41;42.44;98609.97;3559276;40;20049;-64
2021/06/18 08:17:12;;;;;;;7.60;5.80;;;;;;;29.47;42.80;98605.13;3558904;40;20045;-65
2021/06/18 08:19:40;;;;;;;8.25;6.22;;;;;;;29.56;42.28;98605.94;3559266;40;20054;-64
2021/06/18 08:22:07;;;;;;;7.57;6.00;;;;;;;29.59;41.97;98597.94;3559225;40;20455;-66
2021/06/18 08:24:36;;;;;;;9.30;6.95;;;;;;;29.65;41.97;98600.50;3559223;40;20082;-65
2021/06/18 08:27:04;;;;;;;11.48;6.90;;;;;;;29.71;42.36;98596.47;3558868;40;20050;-65
2021/06/18 08:29:33;;;;;;;8.45;7.65;;;;;;;29.77;41.62;98590.56;3559877;40;20094;-64
2021/06/18 08:32:01;;;;;;;7.70;6.90;;;;;;;29.81;41.66;98604.31;3566414;40;20075;-65
2021/06/18 08:34:29;;;;;;;6.68;5.40;;;;;;;29.83;41.92;98593.88;3559201;40;20049;-65
2021/06/18 08:36:57;;;;;;;9.27;6.03;;;;;;;29.86;41.59;98596.78;3558948;40;20101;-64
2021/06/18 08:39:25;;;;;;;6.55;5.88;;;;;;;29.93;41.15;98600.94;3559210;40;20258;-65
2021/06/18 08:41:52;;;;;;;9.20;5.90;;;;;;;29.88;41.18;98592.91;3558866;40;20423;-65
2021/06/18 08:44:25;;;;;;;8.35;6.03;;;;;;;29.80;41.49;98591.81;3559240;40;20041;-65
2021/06/18 08:46:54;;;;;;;10.88;6.30;;;;;;;29.91;41.26;98584.09;3558788;40;20065;-65
2021/06/18 08:49:23;;;;;;;9.07;6.90;;;;;;;30.03;41.51;98586.94;3558111;40;20090;-64
2021/06/18 08:51:51;;;;;;;8.35;6.07;;;;;;;30.13;41.07;98575.69;3559122;40;20050;-64
2021/06/18 08:54:19;;;;;;;7.82;6.15;;;;;;;30.20;40.64;98586.09;3558985;40;20085;-64
2021/06/18 08:56:47;;;;;;;10.38;6.65;;;;;;;30.16;40.31;98582.44;3558828;40;20052;-66
2021/06/18 08:59:15;;;;;;;7.70;6.88;;;;;;;30.16;40.86;98585.94;3559441;40;20121;-64
2021/06/18 09:01:43;;;;;;;13.10;8.18;;;;;;;30.14;40.40;98584.66;3559159;40;20086;-65
2021/06/18 09:04:12;;;;;;;14.57;9.80;;;;;;;30.08;39.82;98581.31;3559060;40;20046;-64
2021/06/18 09:06:42;;;;;;;10.65;6.28;;;;;;;30.04;40.67;98580.34;3558976;40;20058;-66
2021/06/18 09:09:18;;;;;;;9.35;7.07;;;;;;;30.15;40.08;98583.53;3559127;40;20049;-64
2021/06/18 09:11:49;;;;;;;12.85;5.97;;;;;;;30.26;40.16;98582.09;3559046;40;20138;-64
2021/06/18 09:14:35;;;;;;;11.07;5.50;;;;;;;30.44;39.40;98583.59;3558969;40;20395;-64
2021/06/18 09:17:13;;;;;;;9.90;6.03;;;;;;;30.63;39.35;98574.19;3558703;40;20057;-64
2021/06/18 09:19:44;;;;;;;10.55;7.22;;;;;;;30.77;38.29;98580.22;3559234;40;20081;-64
2021/06/18 09:22:14;;;;;;;10.65;6.97;;;;;;;30.79;38.17;98578.75;3559238;40;20053;-64
2021/06/18 09:24:44;;;;;;;9.73;6.70;;;;;;;30.93;37.83;98578.50;3559087;40;20050;-63
2021/06/18 09:27:13;;;;;;;8.57;6.43;;;;;;;31.13;37.07;98578.81;3558727;40;20046;-64
2021/06/18 09:29:42;;;;;;;7.00;5.70;;;;;;;31.26;36.85;98572.28;3558165;40;20069;-64
2021/06/18 09:32:12;;;;;;;9.50;6.43;;;;;;;31.35;36.86;98585.88;3558531;40;20082;-64
2021/06/18 09:34:48;;;;;;;9.02;5.93;;;;;;;31.37;36.64;98572.72;3559145;40;20058;-64
2021/06/18 09:37:25;;;;;;;9.95;6.72;;;;;;;31.40;36.86;98591.16;3559137;40;20057;-64
2021/06/18 09:39:58;;;;;;;9.32;5.80;;;;;;;31.42;36.34;98581.47;3558887;40;20049;-64
2021/06/18 09:42:33;;;;;;;7.47;5.88;;;;;;;31.52;36.36;98580.28;3558616;40;20045;-64
2021/06/18 09:45:07;;;;;;;7.15;5.15;;;;;;;31.60;36.09;98581.31;3558697;40;20326;-64
2021/06/18 09:47:36;;;;;;;11.30;7.03;;;;;;;31.75;36.33;98580.69;3558544;40;20442;-63
2021/06/18 09:50:21;;;;;;;7.60;5.28;;;;;;;31.70;36.25;98587.16;3558927;40;20065;-64
2021/06/18 09:52:48;;;;;;;7.65;5.90;;;;;;;31.67;36.24;98589.75;3558596;40;20045;-63
2021/06/18 09:55:20;;;;;;;10.70;6.28;;;;;;;31.70;36.05;98598.09;3558531;40;20094;-63
2021/06/18 09:57:53;;;;;;;8.10;5.63;;;;;;;31.73;35.90;98597.41;3558689;40;20347;-64
2021/06/18 10:00:24;;;;;;;12.00;6.55;;;;;;;31.74;36.06;98599.00;3558489;40;20042;-64
2021/06/18 10:02:53;;;;;;;10.13;5.55;;;;;;;31.64;35.72;98595.88;3558659;40;20078;-65
2021/06/18 10:05:24;;;;;;;12.35;7.07;;;;;;;31.60;35.78;98595.78;3558762;40;20493;-65
2021/06/18 10:07:54;;;;;;;9.07;5.50;;;;;;;31.27;36.08;98601.19;3558458;40;20045;-65
2021/06/18 10:10:24;;;;;;;7.93;5.40;;;;;;;31.21;36.40;98597.06;3558903;40;20056;-63
2021/06/18 10:12:54;;;;;;;8.18;5.65;;;;;;;31.30;36.85;98603.28;3557721;40;20057;-63
2021/06/18 10:15:23;;;;;;;6.72;5.63;;;;;;;31.51;36.45;98597.78;3558803;40;20089;-64
2021/06/18 10:17:53;;;;;;;6.05;5.20;;;;;;;31.66;36.24;98601.84;3558317;40;20049;-65
2021/06/18 10:20:24;;;;;;;8.43;5.20;;;;;;;31.80;35.81;98605.03;3557583;40;20073;-65
2021/06/18 10:22:56;;;;;;;8.45;5.43;;;;;;;31.87;35.52;98604.53;3558783;40;20094;-65
2021/06/18 10:25:30;;;;;;;8.60;5.57;;;;;;;31.88;35.78;98601.44;3557916;40;20060;-65
2021/06/18 10:28:03;;;;;;;10.95;5.85;;;;;;;32.04;35.42;98601.59;3558199;40;20053;-65
2021/06/18 10:30:47;;;;;;;11.13;5.57;;;;;;;32.25;35.46;98604.25;3558282;40;20049;-65
2021/06/18 10:33:34;;;;;;;9.38;5.72;;;;;;;32.36;35.10;98594.44;3558445;40;20093;-64
2021/06/18 10:36:20;;;;;;;6.72;6.00;;;;;;;32.54;34.52;98590.38;3558044;40;20057;-65
2021/06/18 10:39:01;;;;;;;8.32;5.22;;;;;;;32.55;33.87;98589.25;3557750;40;20335;-65
2021/06/18 10:41:29;;;;;;;8.15;4.75;;;;;;;32.64;33.74;98586.38;3558375;40;20053;-65
2021/06/18 10:43:58;;;;;;;6.63;5.70;;;;;;;32.77;33.56;98585.22;3557841;40;20060;-65
2021/06/18 10:46:32;;;;;;;12.52;6.82;;;;;;;32.95;33.48;98583.06;3557243;40;20084;-65
2021/06/18 10:49:08;;;;;;;12.35;8.43;;;;;;;32.94;33.28;98569.69;3558066;40;20058;-65
2021/06/18 10:51:45;;;;;;;7.05;5.78;;;;;;;32.55;33.63;98553.66;3558430;40;20050;-64
2021/06/18 10:54:25;;;;;;;8.48;6.15;;;;;;;32.39;33.75;98544.56;3558106;40;20045;-65
2021/06/18 10:57:14;;;;;;;10.32;6.88;;;;;;;32.09;34.84;98554.94;3558230;40;20049;-63
2021/06/18 10:59:46;;;;;;;8.32;6.30;;;;;;;31.89;34.93;98553.06;3558235;40;20053;-63
2021/06/18 11:02:36;;;;;;;10.68;6.03;;;;;;;31.86;34.93;98540.09;3558517;40;20054;-63
2021/06/18 11:05:32;;;;;;;9.32;6.15;;;;;;;32.04;34.36;98544.19;3558795;40;20049;-63
2021/06/18 11:08:18;;;;;;;9.15;5.85;;;;;;;32.28;34.56;98537.94;3554463;40;20053;-63
2021/06/18 11:11:26;;;;;;;10.00;7.93;;;;;;;32.59;34.22;98534.63;3558249;40;20120;-64
2021/06/18 11:14:04;;;;;;;8.52;6.82;;;;;;;32.70;34.04;98532.19;3557930;40;20081;-64
2021/06/18 11:16:34;;;;;;;8.25;7.45;;;;;;;32.70;33.51;98534.94;3557787;40;20116;-65
2021/06/18 11:19:21;;;;;;;10.95;7.15;;;;;;;32.94;33.18;98529.44;3557895;40;20116;-64
2021/06/18 11:21:49;;;;;;;7.80;6.03;;;;;;;32.87;33.03;98529.22;3557944;40;20054;-64
2021/06/18 11:24:34;;;;;;;11.35;5.65;;;;;;;32.96;33.43;98529.88;3558333;40;20057;-64
2021/06/18 11:27:21;;;;;;;7.40;5.85;;;;;;;33.20;32.78;98529.00;3558447;40;20346;-65
2021/06/18 11:29:49;;;;;;;8.85;6.28;;;;;;;33.32;32.25;98530.09;3558343;40;20046;-68
2021/06/18 11:32:41;;;;;;;7.15;6.38;;;;;;;33.26;32.87;98529.53;3565745;40;20398;-65
2021/06/18 11:35:43;;;;;;;7.18;5.40;;;;;;;33.22;33.02;98521.22;3558639;40;20064;-65
2021/06/18 11:38:17;;;;;;;8.13;6.10;;;;;;;33.10;32.71;98531.44;3558824;40;20326;-65
2021/06/18 11:40:56;;;;;;;6.60;5.60;;;;;;;32.86;33.14;98530.34;3560180;40;20042;-65